sensor_id;sensor_type;location;lat;lon;timestamp;temperature;humidity
1590;DHT22;788;48.720;9.158;2022-10-22T00:01:13;13.50;99.90
1590;DHT22;788;48.720;9.158;2022-10-22T00:03:40;13.50;99.90
1590;DHT22;788;48.720;9.158;2022-10-22T00:06:07;13.50;99.90
1590;DHT22;788;48.720;9.158;2022-10-22T00:08:34;13.50;99.90
1590;DHT22;788;48.720;9.158;2022-10-22T00:11:09;13.50;99.90
1590;DHT22;788;48.720;9.158;2022-10-22T00:13:36;13.60;99.90
1590;DHT22;788;48.720;9.158;2022-10-22T00:16:04;13.50;99.90
1590;DHT22;788;48.720;9.158;2022-10-22T00:18:31;13.60;99.90
1590;DHT22;788;48.720;9.158;2022-10-22T00:20:57;13.60;99.90
1590;DHT22;788;48.720;9.158;2022-10-22T00:23:24;13.60;99.90
1590;DHT22;788;48.720;9.158;2022-10-22T00:25:52;13.50;99.90
1590;DHT22;788;48.720;9.158;2022-10-22T00:28:20;13.50;99.90
1590;DHT22;788;48.720;9.158;2022-10-22T00:30:47;13.40;99.90
1590;DHT22;788;48.720;9.158;2022-10-22T00:33:16;13.40;99.90
1590;DHT22;788;48.720;9.158;2022-10-22T00:35:43;13.20;99.90
1590;DHT22;788;48.720;9.158;2022-10-22T00:38:11;13.30;99.90
1590;DHT22;788;48.720;9.158;2022-10-22T00:40:38;13.30;99.90
1590;DHT22;788;48.720;9.158;2022-10-22T00:43:08;13.20;99.90
1590;DHT22;788;48.720;9.158;2022-10-22T00:45:37;13.30;99.90
1590;DHT22;788;48.720;9.158;2022-10-22T00:48:07;13.30;99.90
1590;DHT22;788;48.720;9.158;2022-10-22T00:50:37;13.30;99.90
1590;DHT22;788;48.720;9.158;2022-10-22T00:53:14;13.30;99.90
1590;DHT22;788;48.720;9.158;2022-10-22T00:55:43;13.20;99.90
1590;DHT22;788;48.720;9.158;2022-10-22T00:58:12;13.10;99.90
1590;DHT22;788;48.720;9.158;2022-10-22T01:00:43;13.10;99.90
1590;DHT22;788;48.720;9.158;2022-10-22T01:03:10;13.00;99.90
1590;DHT22;788;48.720;9.158;2022-10-22T01:05:41;13.10;99.90
1590;DHT22;788;48.720;9.158;2022-10-22T01:08:27;13.20;99.90
1590;DHT22;788;48.720;9.158;2022-10-22T01:11:09;13.20;99.90
1590;DHT22;788;48.720;9.158;2022-10-22T01:13:49;13.10;99.90
1590;DHT22;788;48.720;9.158;2022-10-22T01:16:24;13.20;99.90
1590;DHT22;788;48.720;9.158;2022-10-22T01:18:57;13.10;99.90
1590;DHT22;788;48.720;9.158;2022-10-22T01:21:31;13.10;99.90
1590;DHT22;788;48.720;9.158;2022-10-22T01:27:12;13.10;99.90
1590;DHT22;788;48.720;9.158;2022-10-22T01:29:59;13.20;99.90
1590;DHT22;788;48.720;9.158;2022-10-22T01:32:38;13.20;99.90
1590;DHT22;788;48.720;9.158;2022-10-22T01:35:08;13.20;99.90
1590;DHT22;788;48.720;9.158;2022-10-22T01:37:39;13.20;99.90
1590;DHT22;788;48.720;9.158;2022-10-22T01:40:10;13.10;99.90
1590;DHT22;788;48.720;9.158;2022-10-22T01:42:38;13.10;99.90
1590;DHT22;788;48.720;9.158;2022-10-22T01:45:11;13.20;99.90
1590;DHT22;788;48.720;9.158;2022-10-22T01:47:48;13.20;99.90
1590;DHT22;788;48.720;9.158;2022-10-22T01:50:50;13.30;99.90
1590;DHT22;788;48.720;9.158;2022-10-22T01:53:27;13.30;99.90
1590;DHT22;788;48.720;9.158;2022-10-22T01:56:13;13.30;99.90
1590;DHT22;788;48.720;9.158;2022-10-22T01:58:47;13.30;99.90
1590;DHT22;788;48.720;9.158;2022-10-22T02:01:25;13.40;99.90
1590;DHT22;788;48.720;9.158;2022-10-22T02:03:59;13.30;99.90
1590;DHT22;788;48.720;9.158;2022-10-22T02:06:28;13.20;99.90
1590;DHT22;788;48.720;9.158;2022-10-22T02:09:04;13.20;99.90
1590;DHT22;788;48.720;9.158;2022-10-22T02:11:38;13.20;99.90
1590;DHT22;788;48.720;9.158;2022-10-22T02:14:10;13.30;99.90
1590;DHT22;788;48.720;9.158;2022-10-22T02:16:51;13.40;99.90
1590;DHT22;788;48.720;9.158;2022-10-22T02:19:29;13.40;99.90
1590;DHT22;788;48.720;9.158;2022-10-22T02:22:22;13.30;99.90
1590;DHT22;788;48.720;9.158;2022-10-22T02:24:52;13.30;99.90
1590;DHT22;788;48.720;9.158;2022-10-22T02:27:28;13.30;99.90
1590;DHT22;788;48.720;9.158;2022-10-22T02:30:00;13.30;99.90
1590;DHT22;788;48.720;9.158;2022-10-22T02:32:33;13.30;99.90
1590;DHT22;788;48.720;9.158;2022-10-22T02:35:02;13.30;99.90
1590;DHT22;788;48.720;9.158;2022-10-22T02:37:30;13.30;99.90
1590;DHT22;788;48.720;9.158;2022-10-22T02:39:57;13.20;99.90
1590;DHT22;788;48.720;9.158;2022-10-22T02:42:25;13.10;99.90
1590;DHT22;788;48.720;9.158;2022-10-22T02:44:53;13.00;99.90
1590;DHT22;788;48.720;9.158;2022-10-22T02:47:20;13.00;99.90
1590;DHT22;788;48.720;9.158;2022-10-22T02:49:48;13.00;99.90
1590;DHT22;788;48.720;9.158;2022-10-22T02:52:15;13.00;99.90
1590;DHT22;788;48.720;9.158;2022-10-22T02:54:43;12.90;99.90
1590;DHT22;788;48.720;9.158;2022-10-22T02:57:10;13.00;99.90
1590;DHT22;788;48.720;9.158;2022-10-22T02:59:37;12.90;99.90
1590;DHT22;788;48.720;9.158;2022-10-22T03:02:03;13.00;99.90
1590;DHT22;788;48.720;9.158;2022-10-22T03:04:30;12.90;99.90
1590;DHT22;788;48.720;9.158;2022-10-22T03:06:58;12.90;99.90
1590;DHT22;788;48.720;9.158;2022-10-22T03:09:25;13.00;99.90
1590;DHT22;788;48.720;9.158;2022-10-22T03:11:52;13.00;99.90
1590;DHT22;788;48.720;9.158;2022-10-22T03:14:19;13.00;99.90
1590;DHT22;788;48.720;9.158;2022-10-22T03:16:46;13.00;99.90
1590;DHT22;788;48.720;9.158;2022-10-22T03:19:12;13.00;99.90
1590;DHT22;788;48.720;9.158;2022-10-22T03:21:41;13.10;99.90
1590;DHT22;788;48.720;9.158;2022-10-22T03:24:13;13.20;99.90
1590;DHT22;788;48.720;9.158;2022-10-22T03:26:42;13.20;99.90
1590;DHT22;788;48.720;9.158;2022-10-22T03:29:10;13.30;99.90
1590;DHT22;788;48.720;9.158;2022-10-22T03:31:38;13.20;99.90
1590;DHT22;788;48.720;9.158;2022-10-22T03:34:09;13.20;99.90
1590;DHT22;788;48.720;9.158;2022-10-22T03:36:36;13.30;99.90
1590;DHT22;788;48.720;9.158;2022-10-22T03:39:05;13.30;99.90
1590;DHT22;788;48.720;9.158;2022-10-22T03:41:49;13.40;99.90
1590;DHT22;788;48.720;9.158;2022-10-22T03:44:23;13.30;99.90
1590;DHT22;788;48.720;9.158;2022-10-22T03:46:55;13.30;99.90
1590;DHT22;788;48.720;9.158;2022-10-22T03:49:27;13.30;99.90
1590;DHT22;788;48.720;9.158;2022-10-22T03:51:55;13.30;99.90
1590;DHT22;788;48.720;9.158;2022-10-22T03:54:22;13.20;99.90
1590;DHT22;788;48.720;9.158;2022-10-22T03:56:50;13.30;99.90
1590;DHT22;788;48.720;9.158;2022-10-22T03:59:19;13.20;99.90
1590;DHT22;788;48.720;9.158;2022-10-22T04:01:49;13.20;99.90
1590;DHT22;788;48.720;9.158;2022-10-22T04:04:19;13.20;99.90
1590;DHT22;788;48.720;9.158;2022-10-22T04:06:46;13.20;99.90
1590;DHT22;788;48.720;9.158;2022-10-22T04:09:26;13.20;99.90
1590;DHT22;788;48.720;9.158;2022-10-22T04:11:56;13.10;99.90
1590;DHT22;788;48.720;9.158;2022-10-22T04:14:27;13.00;99.90
1590;DHT22;788;48.720;9.158;2022-10-22T04:16:55;13.00;99.90
1590;DHT22;788;48.720;9.158;2022-10-22T04:19:22;13.00;99.90
1590;DHT22;788;48.720;9.158;2022-10-22T04:21:48;12.90;99.90
1590;DHT22;788;48.720;9.158;2022-10-22T04:24:15;12.80;99.90
1590;DHT22;788;48.720;9.158;2022-10-22T04:26:42;12.90;99.90
1590;DHT22;788;48.720;9.158;2022-10-22T04:29:10;12.80;99.90
1590;DHT22;788;48.720;9.158;2022-10-22T04:31:37;12.70;99.90
1590;DHT22;788;48.720;9.158;2022-10-22T04:34:04;12.70;99.90
1590;DHT22;788;48.720;9.158;2022-10-22T04:36:31;12.70;99.90
1590;DHT22;788;48.720;9.158;2022-10-22T04:38:59;12.60;99.90
1590;DHT22;788;48.720;9.158;2022-10-22T04:41:30;12.70;99.90
1590;DHT22;788;48.720;9.158;2022-10-22T04:43:58;12.70;99.90
1590;DHT22;788;48.720;9.158;2022-10-22T04:46:28;12.50;99.90
1590;DHT22;788;48.720;9.158;2022-10-22T04:48:56;12.50;99.90
1590;DHT22;788;48.720;9.158;2022-10-22T04:51:24;12.50;99.90
1590;DHT22;788;48.720;9.158;2022-10-22T04:53:52;12.60;99.90
1590;DHT22;788;48.720;9.158;2022-10-22T04:56:21;12.60;99.90
1590;DHT22;788;48.720;9.158;2022-10-22T04:58:50;12.60;99.90
1590;DHT22;788;48.720;9.158;2022-10-22T05:01:19;12.60;99.90
1590;DHT22;788;48.720;9.158;2022-10-22T05:03:48;12.60;99.90
1590;DHT22;788;48.720;9.158;2022-10-22T05:06:16;12.60;99.90
1590;DHT22;788;48.720;9.158;2022-10-22T05:08:45;12.60;99.90
1590;DHT22;788;48.720;9.158;2022-10-22T05:11:14;12.60;99.90
1590;DHT22;788;48.720;9.158;2022-10-22T05:13:41;12.60;99.90
1590;DHT22;788;48.720;9.158;2022-10-22T05:16:10;12.50;99.90
1590;DHT22;788;48.720;9.158;2022-10-22T05:18:39;12.50;99.90
1590;DHT22;788;48.720;9.158;2022-10-22T05:21:10;12.60;99.90
1590;DHT22;788;48.720;9.158;2022-10-22T05:23:37;12.50;99.90
1590;DHT22;788;48.720;9.158;2022-10-22T05:26:04;12.50;99.90
1590;DHT22;788;48.720;9.158;2022-10-22T05:28:32;12.50;99.90
1590;DHT22;788;48.720;9.158;2022-10-22T05:31:00;12.40;99.90
1590;DHT22;788;48.720;9.158;2022-10-22T05:33:27;12.50;99.90
1590;DHT22;788;48.720;9.158;2022-10-22T05:35:54;12.50;99.90
1590;DHT22;788;48.720;9.158;2022-10-22T05:38:23;12.60;99.90
1590;DHT22;788;48.720;9.158;2022-10-22T05:41:00;12.60;99.90
1590;DHT22;788;48.720;9.158;2022-10-22T05:43:28;12.60;99.90
1590;DHT22;788;48.720;9.158;2022-10-22T05:45:55;12.50;99.90
1590;DHT22;788;48.720;9.158;2022-10-22T05:48:26;12.40;99.90
1590;DHT22;788;48.720;9.158;2022-10-22T05:50:53;12.50;99.90
1590;DHT22;788;48.720;9.158;2022-10-22T05:53:20;12.60;99.90
1590;DHT22;788;48.720;9.158;2022-10-22T05:55:48;12.50;99.90
1590;DHT22;788;48.720;9.158;2022-10-22T05:58:15;12.50;99.90
1590;DHT22;788;48.720;9.158;2022-10-22T06:00:41;12.60;99.90
1590;DHT22;788;48.720;9.158;2022-10-22T06:03:08;12.60;99.90
1590;DHT22;788;48.720;9.158;2022-10-22T06:05:36;12.60;99.90
1590;DHT22;788;48.720;9.158;2022-10-22T06:08:03;12.60;99.90
1590;DHT22;788;48.720;9.158;2022-10-22T06:10:30;12.70;99.90
1590;DHT22;788;48.720;9.158;2022-10-22T06:12:59;12.80;99.90
1590;DHT22;788;48.720;9.158;2022-10-22T06:15:27;12.90;99.90
1590;DHT22;788;48.720;9.158;2022-10-22T06:17:54;12.90;99.90
1590;DHT22;788;48.720;9.158;2022-10-22T06:20:21;12.90;99.90
1590;DHT22;788;48.720;9.158;2022-10-22T06:22:47;12.90;99.90
1590;DHT22;788;48.720;9.158;2022-10-22T06:25:14;12.80;99.90
1590;DHT22;788;48.720;9.158;2022-10-22T06:27:41;12.90;99.90
1590;DHT22;788;48.720;9.158;2022-10-22T06:30:10;13.10;99.90
1590;DHT22;788;48.720;9.158;2022-10-22T06:32:37;13.10;99.90
1590;DHT22;788;48.720;9.158;2022-10-22T06:35:04;13.20;99.90
1590;DHT22;788;48.720;9.158;2022-10-22T06:37:31;13.20;99.90
1590;DHT22;788;48.720;9.158;2022-10-22T06:39:58;13.20;99.90
1590;DHT22;788;48.720;9.158;2022-10-22T06:42:26;13.10;99.90
1590;DHT22;788;48.720;9.158;2022-10-22T06:44:53;13.20;99.90
1590;DHT22;788;48.720;9.158;2022-10-22T06:47:21;13.20;99.90
1590;DHT22;788;48.720;9.158;2022-10-22T06:49:47;13.30;99.90
1590;DHT22;788;48.720;9.158;2022-10-22T06:52:14;13.40;99.90
1590;DHT22;788;48.720;9.158;2022-10-22T06:54:41;13.50;99.90
1590;DHT22;788;48.720;9.158;2022-10-22T06:57:08;13.60;99.90
1590;DHT22;788;48.720;9.158;2022-10-22T06:59:35;13.60;99.90
1590;DHT22;788;48.720;9.158;2022-10-22T07:02:02;13.60;99.90
1590;DHT22;788;48.720;9.158;2022-10-22T07:04:30;13.60;99.90
1590;DHT22;788;48.720;9.158;2022-10-22T07:06:57;13.60;99.90
1590;DHT22;788;48.720;9.158;2022-10-22T07:09:23;13.70;99.90
1590;DHT22;788;48.720;9.158;2022-10-22T07:11:50;13.80;99.90
1590;DHT22;788;48.720;9.158;2022-10-22T07:14:17;13.90;99.90
1590;DHT22;788;48.720;9.158;2022-10-22T07:16:44;14.00;99.90
1590;DHT22;788;48.720;9.158;2022-10-22T07:19:11;14.00;99.90
1590;DHT22;788;48.720;9.158;2022-10-22T07:21:40;14.10;99.90
1590;DHT22;788;48.720;9.158;2022-10-22T07:24:07;14.10;99.90
1590;DHT22;788;48.720;9.158;2022-10-22T07:26:34;14.30;99.90
1590;DHT22;788;48.720;9.158;2022-10-22T07:29:02;14.30;99.90
1590;DHT22;788;48.720;9.158;2022-10-22T07:31:29;14.30;99.90
1590;DHT22;788;48.720;9.158;2022-10-22T07:33:56;14.30;99.90
1590;DHT22;788;48.720;9.158;2022-10-22T07:36:23;14.40;99.90
1590;DHT22;788;48.720;9.158;2022-10-22T07:38:55;14.40;99.90
1590;DHT22;788;48.720;9.158;2022-10-22T07:41:23;14.40;99.90
1590;DHT22;788;48.720;9.158;2022-10-22T07:47:27;14.40;99.90
1590;DHT22;788;48.720;9.158;2022-10-22T07:49:54;14.50;99.90
1590;DHT22;788;48.720;9.158;2022-10-22T07:52:20;14.50;99.90
1590;DHT22;788;48.720;9.158;2022-10-22T07:54:48;14.40;99.90
1590;DHT22;788;48.720;9.158;2022-10-22T07:57:15;14.40;99.90
1590;DHT22;788;48.720;9.158;2022-10-22T07:59:42;14.40;99.90
1590;DHT22;788;48.720;9.158;2022-10-22T08:02:09;14.50;99.90
1590;DHT22;788;48.720;9.158;2022-10-22T08:04:36;14.40;99.90
1590;DHT22;788;48.720;9.158;2022-10-22T08:07:03;14.60;99.90
1590;DHT22;788;48.720;9.158;2022-10-22T08:09:30;14.70;99.90
1590;DHT22;788;48.720;9.158;2022-10-22T08:11:59;14.80;99.90
1590;DHT22;788;48.720;9.158;2022-10-22T08:14:25;14.80;99.90
1590;DHT22;788;48.720;9.158;2022-10-22T08:16:52;14.80;99.90
1590;DHT22;788;48.720;9.158;2022-10-22T08:19:19;14.80;99.90
1590;DHT22;788;48.720;9.158;2022-10-22T08:21:46;14.80;99.90
1590;DHT22;788;48.720;9.158;2022-10-22T08:24:13;14.80;99.90
1590;DHT22;788;48.720;9.158;2022-10-22T08:26:40;14.80;99.90
1590;DHT22;788;48.720;9.158;2022-10-22T08:29:23;14.70;99.90
1590;DHT22;788;48.720;9.158;2022-10-22T08:38:47;14.90;99.90
1590;DHT22;788;48.720;9.158;2022-10-22T08:41:16;14.90;99.90
1590;DHT22;788;48.720;9.158;2022-10-22T08:50:21;15.00;99.90
1590;DHT22;788;48.720;9.158;2022-10-22T08:52:55;15.20;99.90
1590;DHT22;788;48.720;9.158;2022-10-22T08:55:24;15.20;99.90
1590;DHT22;788;48.720;9.158;2022-10-22T08:57:57;15.30;99.90
1590;DHT22;788;48.720;9.158;2022-10-22T09:00:30;15.30;99.90
1590;DHT22;788;48.720;9.158;2022-10-22T09:03:15;15.40;99.90
1590;DHT22;788;48.720;9.158;2022-10-22T09:05:55;15.50;99.90
1590;DHT22;788;48.720;9.158;2022-10-22T09:08:26;15.60;99.90
1590;DHT22;788;48.720;9.158;2022-10-22T09:10:57;15.60;99.90
1590;DHT22;788;48.720;9.158;2022-10-22T09:13:28;15.70;99.90
1590;DHT22;788;48.720;9.158;2022-10-22T09:15:58;15.90;99.90
1590;DHT22;788;48.720;9.158;2022-10-22T09:18:34;15.90;99.90
1590;DHT22;788;48.720;9.158;2022-10-22T09:21:12;16.00;99.90
1590;DHT22;788;48.720;9.158;2022-10-22T09:23:55;16.10;99.90
1590;DHT22;788;48.720;9.158;2022-10-22T09:26:25;16.30;99.90
1590;DHT22;788;48.720;9.158;2022-10-22T09:28:52;16.30;99.90
1590;DHT22;788;48.720;9.158;2022-10-22T09:31:19;16.30;99.90
1590;DHT22;788;48.720;9.158;2022-10-22T09:33:46;16.30;99.90
1590;DHT22;788;48.720;9.158;2022-10-22T09:36:19;16.50;99.90
1590;DHT22;788;48.720;9.158;2022-10-22T09:38:49;16.60;99.90
1590;DHT22;788;48.720;9.158;2022-10-22T09:41:22;16.70;99.90
1590;DHT22;788;48.720;9.158;2022-10-22T09:43:49;16.80;99.90
1590;DHT22;788;48.720;9.158;2022-10-22T09:46:21;16.80;99.90
1590;DHT22;788;48.720;9.158;2022-10-22T09:48:50;17.00;99.90
1590;DHT22;788;48.720;9.158;2022-10-22T09:51:25;17.00;99.90
1590;DHT22;788;48.720;9.158;2022-10-22T09:54:10;17.00;99.90
1590;DHT22;788;48.720;9.158;2022-10-22T09:56:41;17.10;99.90
1590;DHT22;788;48.720;9.158;2022-10-22T09:59:13;17.20;99.90
1590;DHT22;788;48.720;9.158;2022-10-22T10:01:41;17.30;99.90
1590;DHT22;788;48.720;9.158;2022-10-22T10:04:18;17.40;99.90
1590;DHT22;788;48.720;9.158;2022-10-22T10:06:53;17.50;99.90
1590;DHT22;788;48.720;9.158;2022-10-22T10:09:23;17.70;99.90
1590;DHT22;788;48.720;9.158;2022-10-22T10:11:58;17.70;99.90
1590;DHT22;788;48.720;9.158;2022-10-22T10:14:34;17.80;99.90
1590;DHT22;788;48.720;9.158;2022-10-22T10:17:15;18.00;99.90
1590;DHT22;788;48.720;9.158;2022-10-22T10:19:57;18.00;99.90
1590;DHT22;788;48.720;9.158;2022-10-22T10:22:41;18.10;99.90
1590;DHT22;788;48.720;9.158;2022-10-22T10:28:19;18.10;99.90
1590;DHT22;788;48.720;9.158;2022-10-22T11:42:37;22.80;99.80
1590;DHT22;788;48.720;9.158;2022-10-22T11:45:22;23.10;99.60
1590;DHT22;788;48.720;9.158;2022-10-22T11:47:58;23.60;99.90
1590;DHT22;788;48.720;9.158;2022-10-22T11:50:44;23.70;99.20
1590;DHT22;788;48.720;9.158;2022-10-22T11:53:18;23.90;99.70
1590;DHT22;788;48.720;9.158;2022-10-22T11:55:46;24.40;97.30
1590;DHT22;788;48.720;9.158;2022-10-22T11:58:33;24.80;96.60
1590;DHT22;788;48.720;9.158;2022-10-22T12:01:21;25.10;96.80
1590;DHT22;788;48.720;9.158;2022-10-22T12:03:50;25.80;97.60
1590;DHT22;788;48.720;9.158;2022-10-22T12:06:20;25.90;93.00
1590;DHT22;788;48.720;9.158;2022-10-22T12:08:57;25.50;93.80
1590;DHT22;788;48.720;9.158;2022-10-22T12:11:27;24.90;92.40
1590;DHT22;788;48.720;9.158;2022-10-22T12:14:18;24.40;93.90
1590;DHT22;788;48.720;9.158;2022-10-22T12:16:47;24.10;96.50
1590;DHT22;788;48.720;9.158;2022-10-22T12:19:22;24.50;95.50
1590;DHT22;788;48.720;9.158;2022-10-22T12:21:53;25.30;94.50
1590;DHT22;788;48.720;9.158;2022-10-22T12:24:23;26.00;93.60
1590;DHT22;788;48.720;9.158;2022-10-22T12:26:50;26.50;94.90
1590;DHT22;788;48.720;9.158;2022-10-22T12:29:20;26.70;86.70
1590;DHT22;788;48.720;9.158;2022-10-22T12:31:50;26.30;87.20
1590;DHT22;788;48.720;9.158;2022-10-22T12:34:25;26.00;83.80
1590;DHT22;788;48.720;9.158;2022-10-22T12:37:03;25.40;86.60
1590;DHT22;788;48.720;9.158;2022-10-22T12:39:31;24.80;90.50
1590;DHT22;788;48.720;9.158;2022-10-22T12:41:59;24.10;90.00
1590;DHT22;788;48.720;9.158;2022-10-22T12:44:31;23.90;90.20
1590;DHT22;788;48.720;9.158;2022-10-22T12:47:00;23.80;93.30
1590;DHT22;788;48.720;9.158;2022-10-22T12:49:34;23.60;94.50
1590;DHT22;788;48.720;9.158;2022-10-22T12:52:14;24.00;96.20
1590;DHT22;788;48.720;9.158;2022-10-22T12:54:49;24.90;94.10
1590;DHT22;788;48.720;9.158;2022-10-22T12:57:20;25.80;94.80
1590;DHT22;788;48.720;9.158;2022-10-22T12:59:51;26.40;91.00
1590;DHT22;788;48.720;9.158;2022-10-22T13:02:22;26.90;88.40
1590;DHT22;788;48.720;9.158;2022-10-22T13:05:18;27.40;89.50
1590;DHT22;788;48.720;9.158;2022-10-22T13:07:48;28.00;83.20
1590;DHT22;788;48.720;9.158;2022-10-22T13:10:20;28.30;77.50
1590;DHT22;788;48.720;9.158;2022-10-22T13:12:56;28.00;76.70
1590;DHT22;788;48.720;9.158;2022-10-22T13:15:42;27.50;76.30
1590;DHT22;788;48.720;9.158;2022-10-22T13:18:24;27.00;78.60
1590;DHT22;788;48.720;9.158;2022-10-22T13:20:54;26.50;79.80
1590;DHT22;788;48.720;9.158;2022-10-22T13:23:23;26.20;80.30
1590;DHT22;788;48.720;9.158;2022-10-22T13:25:57;26.30;81.30
1590;DHT22;788;48.720;9.158;2022-10-22T13:28:25;26.40;82.00
1590;DHT22;788;48.720;9.158;2022-10-22T13:31:10;26.20;83.50
1590;DHT22;788;48.720;9.158;2022-10-22T13:33:54;25.80;83.10
1590;DHT22;788;48.720;9.158;2022-10-22T13:36:35;25.40;83.30
1590;DHT22;788;48.720;9.158;2022-10-22T13:39:14;24.80;84.10
1590;DHT22;788;48.720;9.158;2022-10-22T13:41:49;24.40;86.10
1590;DHT22;788;48.720;9.158;2022-10-22T13:44:20;24.10;88.50
1590;DHT22;788;48.720;9.158;2022-10-22T13:47:06;24.00;89.70
1590;DHT22;788;48.720;9.158;2022-10-22T13:49:36;24.10;90.70
1590;DHT22;788;48.720;9.158;2022-10-22T13:52:09;24.80;92.50
1590;DHT22;788;48.720;9.158;2022-10-22T13:54:42;25.90;89.10
1590;DHT22;788;48.720;9.158;2022-10-22T13:57:15;26.90;79.20
1590;DHT22;788;48.720;9.158;2022-10-22T13:59:49;27.30;76.60
1590;DHT22;788;48.720;9.158;2022-10-22T14:02:22;27.30;73.60
1590;DHT22;788;48.720;9.158;2022-10-22T14:04:52;27.50;73.90
1590;DHT22;788;48.720;9.158;2022-10-22T14:07:19;28.20;77.40
1590;DHT22;788;48.720;9.158;2022-10-22T14:09:49;29.00;74.10
1590;DHT22;788;48.720;9.158;2022-10-22T14:12:31;29.90;75.50
1590;DHT22;788;48.720;9.158;2022-10-22T14:15:01;30.70;71.10
1590;DHT22;788;48.720;9.158;2022-10-22T14:17:37;31.20;68.30
1590;DHT22;788;48.720;9.158;2022-10-22T14:20:14;31.50;64.00
1590;DHT22;788;48.720;9.158;2022-10-22T14:22:45;31.60;60.90
1590;DHT22;788;48.720;9.158;2022-10-22T14:25:20;31.80;59.90
1590;DHT22;788;48.720;9.158;2022-10-22T14:27:52;31.20;57.10
1590;DHT22;788;48.720;9.158;2022-10-22T14:30:21;30.90;59.10
1590;DHT22;788;48.720;9.158;2022-10-22T14:33:09;30.00;58.80
1590;DHT22;788;48.720;9.158;2022-10-22T14:35:46;29.30;59.60
1590;DHT22;788;48.720;9.158;2022-10-22T14:38:16;28.60;59.80
1590;DHT22;788;48.720;9.158;2022-10-22T14:40:48;28.40;62.20
1590;DHT22;788;48.720;9.158;2022-10-22T14:43:35;28.00;60.30
1590;DHT22;788;48.720;9.158;2022-10-22T14:46:08;27.40;61.40
1590;DHT22;788;48.720;9.158;2022-10-22T14:48:47;26.80;62.40
1590;DHT22;788;48.720;9.158;2022-10-22T14:51:23;26.60;65.40
1590;DHT22;788;48.720;9.158;2022-10-22T14:53:55;26.20;66.60
1590;DHT22;788;48.720;9.158;2022-10-22T14:56:22;25.60;66.60
1590;DHT22;788;48.720;9.158;2022-10-22T14:58:55;25.10;67.50
1590;DHT22;788;48.720;9.158;2022-10-22T15:01:24;24.60;69.70
1590;DHT22;788;48.720;9.158;2022-10-22T15:03:54;24.00;70.50
1590;DHT22;788;48.720;9.158;2022-10-22T15:06:23;23.70;71.00
1590;DHT22;788;48.720;9.158;2022-10-22T15:08:50;23.40;73.70
1590;DHT22;788;48.720;9.158;2022-10-22T15:11:19;23.00;74.20
1590;DHT22;788;48.720;9.158;2022-10-22T15:13:51;22.50;75.10
1590;DHT22;788;48.720;9.158;2022-10-22T15:16:18;22.40;77.80
1590;DHT22;788;48.720;9.158;2022-10-22T15:18:45;22.20;78.40
1590;DHT22;788;48.720;9.158;2022-10-22T15:21:16;22.20;80.10
1590;DHT22;788;48.720;9.158;2022-10-22T15:23:46;22.00;80.80
1590;DHT22;788;48.720;9.158;2022-10-22T15:26:15;21.70;83.10
1590;DHT22;788;48.720;9.158;2022-10-22T15:28:44;21.30;81.00
1590;DHT22;788;48.720;9.158;2022-10-22T15:31:12;21.20;83.00
1590;DHT22;788;48.720;9.158;2022-10-22T15:33:44;21.10;83.80
1590;DHT22;788;48.720;9.158;2022-10-22T15:36:18;21.00;83.90
1590;DHT22;788;48.720;9.158;2022-10-22T15:38:45;20.90;85.60
1590;DHT22;788;48.720;9.158;2022-10-22T15:41:14;20.60;85.50
1590;DHT22;788;48.720;9.158;2022-10-22T15:43:44;20.50;87.60
1590;DHT22;788;48.720;9.158;2022-10-22T15:46:13;20.50;88.50
1590;DHT22;788;48.720;9.158;2022-10-22T15:48:41;20.30;88.70
1590;DHT22;788;48.720;9.158;2022-10-22T15:51:13;20.20;89.10
1590;DHT22;788;48.720;9.158;2022-10-22T15:53:42;20.10;89.70
1590;DHT22;788;48.720;9.158;2022-10-22T15:56:10;20.00;90.00
1590;DHT22;788;48.720;9.158;2022-10-22T15:58:37;20.00;90.50
1590;DHT22;788;48.720;9.158;2022-10-22T16:01:10;19.80;90.60
1590;DHT22;788;48.720;9.158;2022-10-22T16:03:40;19.80;91.20
1590;DHT22;788;48.720;9.158;2022-10-22T16:06:07;19.70;91.50
1590;DHT22;788;48.720;9.158;2022-10-22T16:08:38;19.50;92.00
1590;DHT22;788;48.720;9.158;2022-10-22T16:11:25;19.40;92.40
1590;DHT22;788;48.720;9.158;2022-10-22T16:14:00;19.20;92.60
1590;DHT22;788;48.720;9.158;2022-10-22T16:16:31;19.10;93.00
1590;DHT22;788;48.720;9.158;2022-10-22T16:19:03;19.00;93.50
1590;DHT22;788;48.720;9.158;2022-10-22T16:21:33;18.90;94.00
1590;DHT22;788;48.720;9.158;2022-10-22T16:24:21;18.80;94.70
1590;DHT22;788;48.720;9.158;2022-10-22T16:26:54;18.70;95.10
1590;DHT22;788;48.720;9.158;2022-10-22T16:29:25;18.50;95.50
1590;DHT22;788;48.720;9.158;2022-10-22T16:32:01;18.40;96.10
1590;DHT22;788;48.720;9.158;2022-10-22T16:34:41;18.30;96.60
1590;DHT22;788;48.720;9.158;2022-10-22T16:37:13;18.20;97.10
1590;DHT22;788;48.720;9.158;2022-10-22T16:40:06;18.00;97.80
1590;DHT22;788;48.720;9.158;2022-10-22T16:42:48;17.80;98.40
1590;DHT22;788;48.720;9.158;2022-10-22T16:45:16;17.70;99.00
1590;DHT22;788;48.720;9.158;2022-10-22T16:47:49;17.60;99.50
1590;DHT22;788;48.720;9.158;2022-10-22T16:50:22;17.50;99.90
1590;DHT22;788;48.720;9.158;2022-10-22T16:52:52;17.50;99.90
1590;DHT22;788;48.720;9.158;2022-10-22T16:55:25;17.40;99.90
1590;DHT22;788;48.720;9.158;2022-10-22T16:58:15;17.30;99.90
1590;DHT22;788;48.720;9.158;2022-10-22T17:01:22;17.20;99.90
1590;DHT22;788;48.720;9.158;2022-10-22T17:04:21;17.00;99.90
1590;DHT22;788;48.720;9.158;2022-10-22T17:07:11;16.90;99.90
1590;DHT22;788;48.720;9.158;2022-10-22T17:09:48;16.80;99.90
1590;DHT22;788;48.720;9.158;2022-10-22T17:12:28;16.70;99.90
1590;DHT22;788;48.720;9.158;2022-10-22T17:15:15;16.60;99.90
1590;DHT22;788;48.720;9.158;2022-10-22T17:17:51;16.50;99.90
1590;DHT22;788;48.720;9.158;2022-10-22T17:20:46;16.40;99.90
1590;DHT22;788;48.720;9.158;2022-10-22T17:23:32;16.30;99.90
1590;DHT22;788;48.720;9.158;2022-10-22T17:29:27;16.10;99.90
1590;DHT22;788;48.720;9.158;2022-10-22T17:38:41;15.80;99.90
1590;DHT22;788;48.720;9.158;2022-10-22T17:41:09;15.80;99.90
1590;DHT22;788;48.720;9.158;2022-10-22T17:43:41;15.80;99.90
1590;DHT22;788;48.720;9.158;2022-10-22T17:46:10;15.70;99.90
1590;DHT22;788;48.720;9.158;2022-10-22T17:48:39;15.60;99.90
1590;DHT22;788;48.720;9.158;2022-10-22T17:51:06;15.60;99.90
1590;DHT22;788;48.720;9.158;2022-10-22T17:53:33;15.50;99.90
1590;DHT22;788;48.720;9.158;2022-10-22T17:56:03;15.40;99.90
1590;DHT22;788;48.720;9.158;2022-10-22T17:58:31;15.40;99.90
1590;DHT22;788;48.720;9.158;2022-10-22T18:00:58;15.30;99.90
1590;DHT22;788;48.720;9.158;2022-10-22T18:03:25;15.30;99.90
1590;DHT22;788;48.720;9.158;2022-10-22T18:05:52;15.20;99.90
1590;DHT22;788;48.720;9.158;2022-10-22T18:08:19;15.10;99.90
1590;DHT22;788;48.720;9.158;2022-10-22T18:10:47;15.10;99.90
1590;DHT22;788;48.720;9.158;2022-10-22T18:13:15;15.00;99.90
1590;DHT22;788;48.720;9.158;2022-10-22T18:15:42;15.00;99.90
1590;DHT22;788;48.720;9.158;2022-10-22T18:18:09;14.90;99.90
1590;DHT22;788;48.720;9.158;2022-10-22T18:20:36;14.90;99.90
1590;DHT22;788;48.720;9.158;2022-10-22T18:23:02;14.80;99.90
1590;DHT22;788;48.720;9.158;2022-10-22T18:25:29;14.70;99.90
1590;DHT22;788;48.720;9.158;2022-10-22T18:27:56;14.70;99.90
1590;DHT22;788;48.720;9.158;2022-10-22T18:30:25;14.70;99.90